createdAt,value
2023-04-04T00:00:21.423Z,102424.09
2023-04-04T00:02:49.784Z,102423.25
2023-04-04T00:05:16.466Z,102412.91
2023-04-04T00:07:46.387Z,102409.84
2023-04-04T00:10:13.032Z,102418.72
2023-04-04T00:12:39.354Z,102412.81
2023-04-04T00:15:06.445Z,102420.09
2023-04-04T00:17:33.107Z,102413.56
2023-04-04T00:19:59.545Z,102416.47
2023-04-04T00:22:25.926Z,102417.44
2023-04-04T00:24:52.267Z,102421.66
2023-04-04T00:27:18.631Z,102413.13
2023-04-04T00:29:45.442Z,102422.50
2023-04-04T00:32:11.893Z,102425.59
2023-04-04T00:34:38.473Z,102415.84
2023-04-04T00:37:07.390Z,102414.41
2023-04-04T00:39:34.294Z,102422.38
2023-04-04T00:42:00.913Z,102423.69
2023-04-04T00:44:27.349Z,102418.06
2023-04-04T00:46:53.838Z,102418.47
2023-04-04T00:49:20.221Z,102421.69
2023-04-04T00:51:46.701Z,102428.50
2023-04-04T00:54:13.234Z,102430.09
2023-04-04T00:56:39.973Z,102431.41
2023-04-04T00:59:07.535Z,102428.03
2023-04-04T01:01:34.089Z,102426.72
2023-04-04T01:04:00.597Z,102435.09
2023-04-04T01:06:27.937Z,102432.69
2023-04-04T01:08:54.539Z,102434.97
2023-04-04T01:11:21.365Z,102429.06
2023-04-04T01:13:48.016Z,102427.25
2023-04-04T01:16:14.450Z,102424.19
2023-04-04T01:18:42.429Z,102425.50
2023-04-04T01:21:12.276Z,102425.41
2023-04-04T01:24:02.254Z,102424.03
2023-04-04T01:26:29.362Z,102414.13
2023-04-04T01:28:56.972Z,102425.13
2023-04-04T01:31:27.689Z,102414.41
2023-04-04T01:34:06.731Z,102418.94
2023-04-04T01:36:43.294Z,102420.44
2023-04-04T01:39:25.097Z,102417.44
2023-04-04T01:41:51.985Z,102415.47
2023-04-04T01:44:19.122Z,102414.06
2023-04-04T01:46:45.537Z,102414.06
2023-04-04T01:49:12.076Z,102415.09
2023-04-04T01:51:39.096Z,102412.97
2023-04-04T01:54:05.473Z,102406.09
2023-04-04T01:56:32.917Z,102407.94
2023-04-04T01:58:59.294Z,102409.19
2023-04-04T02:01:25.757Z,102406.63
2023-04-04T02:03:52.792Z,102405.06
2023-04-04T02:06:19.305Z,102409.31
2023-04-04T02:08:45.731Z,102402.88
2023-04-04T02:11:12.336Z,102403.09
2023-04-04T02:13:41.252Z,102396.78
2023-04-04T02:16:07.634Z,102404.97
2023-04-04T02:18:34.398Z,102401.91
2023-04-04T02:21:00.989Z,102407.66
2023-04-04T02:23:27.437Z,102407.66
2023-04-04T02:25:53.784Z,102402.69
2023-04-04T02:28:20.576Z,102407.34
2023-04-04T02:30:47.172Z,102407.97
2023-04-04T02:33:13.596Z,102396.84
2023-04-04T02:35:40.046Z,102395.16
2023-04-04T02:38:06.604Z,102396.28
2023-04-04T02:40:32.972Z,102387.03
2023-04-04T02:42:59.312Z,102390.41
2023-04-04T02:45:25.920Z,102393.47
2023-04-04T02:47:52.928Z,102387.28
2023-04-04T02:50:19.317Z,102389.16
2023-04-04T02:52:46.275Z,102383.09
2023-04-04T02:55:12.642Z,102376.84
2023-04-04T02:57:39.078Z,102379.63
2023-04-04T03:00:07.093Z,102377.66
2023-04-04T03:02:33.584Z,102376.78
2023-04-04T03:05:00.062Z,102377.09
2023-04-04T03:07:26.748Z,102379.28
2023-04-04T03:09:53.149Z,102381.44
2023-04-04T03:12:22.528Z,102376.53
2023-04-04T03:14:48.886Z,102376.25
2023-04-04T03:17:15.347Z,102373.91
2023-04-04T03:19:41.880Z,102376.31
2023-04-04T03:22:08.245Z,102384.06
2023-04-04T03:24:37.182Z,102382.03
2023-04-04T03:27:03.985Z,102380.38
2023-04-04T03:29:30.524Z,102383.84
2023-04-04T03:31:56.915Z,102382.25
2023-04-04T03:34:24.701Z,102379.19
2023-04-04T03:36:53.487Z,102383.09
2023-04-04T03:39:20.212Z,102379.47
2023-04-04T03:41:46.746Z,102378.94
2023-04-04T03:44:13.160Z,102366.13
2023-04-04T03:46:39.461Z,102371.66
2023-04-04T03:49:05.888Z,102372.47
2023-04-04T03:51:32.640Z,102372.75
2023-04-04T03:53:58.974Z,102379.38
2023-04-04T03:56:25.705Z,102374.69
2023-04-04T03:58:52.194Z,102376.09
2023-04-04T04:01:18.565Z,102370.03
2023-04-04T04:03:44.981Z,102371.25
2023-04-04T04:06:11.546Z,102369.97
2023-04-04T04:08:37.874Z,102365.78
2023-04-04T04:11:05.525Z,102361.09
2023-04-04T04:13:31.908Z,102361.53
2023-04-04T04:15:58.361Z,102364.91
2023-04-04T04:18:24.853Z,102353.88
2023-04-04T04:20:51.389Z,102356.00
2023-04-04T04:23:17.752Z,102351.38
2023-04-04T04:25:47.677Z,102354.38
2023-04-04T04:28:14.107Z,102358.44
2023-04-04T04:30:41.005Z,102358.72
2023-04-04T04:33:08.282Z,102348.56
2023-04-04T04:35:39.681Z,102352.28
2023-04-04T04:38:07.010Z,102348.72
2023-04-04T04:40:34.209Z,102352.97
2023-04-04T04:43:00.582Z,102353.91
2023-04-04T04:45:27.520Z,102353.94
2023-04-04T04:47:54.571Z,102355.94
2023-04-04T04:50:21.144Z,102353.16
2023-04-04T04:52:50.501Z,102357.94
2023-04-04T04:55:17.654Z,102350.91
2023-04-04T04:57:44.040Z,102348.66
2023-04-04T05:00:11.041Z,102354.56
2023-04-04T05:02:37.547Z,102362.00
2023-04-04T05:05:04.573Z,102363.53
2023-04-04T05:07:30.964Z,102362.19
2023-04-04T05:09:57.266Z,102358.66
2023-04-04T05:12:23.910Z,102358.84
2023-04-04T05:14:50.362Z,102357.25
2023-04-04T05:17:16.847Z,102359.34
2023-04-04T05:19:43.294Z,102361.09
2023-04-04T05:22:09.638Z,102365.06
2023-04-04T05:24:35.972Z,102367.00
2023-04-04T05:27:02.348Z,102363.91
2023-04-04T05:29:29.111Z,102366.59
2023-04-04T05:31:55.781Z,102359.13
2023-04-04T05:34:22.189Z,102364.19
2023-04-04T05:36:48.479Z,102362.88
2023-04-04T05:39:14.814Z,102365.81
2023-04-04T05:41:41.143Z,102375.13
2023-04-04T05:44:07.517Z,102375.69
2023-04-04T05:46:33.947Z,102374.81
2023-04-04T05:49:00.565Z,102377.34
2023-04-04T05:51:26.850Z,102381.53
2023-04-04T05:53:53.197Z,102385.06
2023-04-04T05:56:19.579Z,102378.13
2023-04-04T05:58:46.907Z,102388.59
2023-04-04T06:01:13.259Z,102389.41
2023-04-04T06:03:39.843Z,102386.22
2023-04-04T06:06:07.156Z,102398.31
2023-04-04T06:08:40.161Z,102385.75
2023-04-04T06:11:16.981Z,102391.97
2023-04-04T06:13:43.366Z,102398.25
2023-04-04T06:16:09.760Z,102400.59
2023-04-04T06:18:36.115Z,102399.44
2023-04-04T06:21:02.682Z,102394.00
2023-04-04T06:23:29.013Z,102400.75
2023-04-04T06:25:55.436Z,102404.19
2023-04-04T06:28:21.900Z,102397.78
2023-04-04T06:30:48.724Z,102398.44
2023-04-04T06:33:15.082Z,102407.63
2023-04-04T06:35:41.601Z,102396.50
2023-04-04T06:38:08.620Z,102402.56
2023-04-04T06:40:35.021Z,102399.59
2023-04-04T06:43:01.888Z,102399.94
2023-04-04T06:45:28.531Z,102401.69
2023-04-04T06:47:55.331Z,102399.75
2023-04-04T06:50:22.862Z,102402.75
2023-04-04T06:52:49.655Z,102407.06
2023-04-04T06:55:19.432Z,102416.63
2023-04-04T06:57:45.773Z,102417.88
2023-04-04T07:00:12.956Z,102415.69
2023-04-04T07:02:39.435Z,102416.22
2023-04-04T07:05:06.567Z,102419.25
2023-04-04T07:07:32.954Z,102421.97
2023-04-04T07:09:59.254Z,102426.56
2023-04-04T07:12:25.828Z,102420.22
2023-04-04T07:14:52.744Z,102424.31
2023-04-04T07:17:24.744Z,102428.34
2023-04-04T07:19:51.893Z,102432.09
2023-04-04T07:22:18.261Z,102434.06
2023-04-04T07:24:44.902Z,102432.56
2023-04-04T07:27:11.590Z,102428.84
2023-04-04T07:29:37.991Z,102425.50
2023-04-04T07:32:04.465Z,102433.88
2023-04-04T07:34:30.918Z,102443.50
2023-04-04T07:36:57.293Z,102444.72
2023-04-04T07:39:23.709Z,102443.50
2023-04-04T07:41:50.209Z,102434.97
2023-04-04T07:44:16.600Z,102430.34
2023-04-04T07:46:43.009Z,102434.88
2023-04-04T07:49:09.372Z,102437.88
2023-04-04T07:51:36.109Z,102429.81
2023-04-04T07:54:03.144Z,102426.78
2023-04-04T07:56:29.689Z,102425.75
2023-04-04T07:58:56.232Z,102418.28
2023-04-04T08:01:22.805Z,102423.91
2023-04-04T08:03:50.342Z,102417.34
2023-04-04T08:06:16.844Z,102412.22
2023-04-04T08:08:43.793Z,102409.59
2023-04-04T08:11:10.206Z,102415.03
2023-04-04T08:13:36.769Z,102420.72
2023-04-04T08:16:03.298Z,102415.75
2023-04-04T08:18:29.705Z,102411.50
2023-04-04T08:20:56.064Z,102407.81
2023-04-04T08:23:22.532Z,102402.47
2023-04-04T08:25:49.001Z,102398.63
2023-04-04T08:28:15.530Z,102392.31
2023-04-04T08:30:42.006Z,102387.56
2023-04-04T08:33:09.316Z,102393.69
2023-04-04T08:35:36.468Z,102386.88
2023-04-04T08:38:06.067Z,102392.50
2023-04-04T08:40:34.758Z,102388.53
2023-04-04T08:43:01.762Z,102397.00
2023-04-04T08:45:30.660Z,102383.50
2023-04-04T08:47:59.404Z,102385.00
2023-04-04T08:50:26.898Z,102380.22
2023-04-04T08:52:54.605Z,102381.63
2023-04-04T08:55:21.299Z,102378.69
2023-04-04T08:57:47.678Z,102371.97
2023-04-04T09:00:14.702Z,102375.13
2023-04-04T09:03:27.496Z,102378.63
2023-04-04T09:05:55.406Z,102382.63
2023-04-04T09:08:24.699Z,102378.03
2023-04-04T09:10:52.891Z,102383.63
2023-04-04T09:13:19.825Z,102390.47
2023-04-04T09:15:52.293Z,102387.06
2023-04-04T09:18:19.022Z,102394.94
2023-04-04T09:20:47.102Z,102387.97
2023-04-04T09:23:15.647Z,102388.03
2023-04-04T09:26:02.631Z,102390.50
2023-04-04T09:28:31.226Z,102385.19
2023-04-04T09:31:00.431Z,102382.25
2023-04-04T09:33:26.865Z,102379.97
2023-04-04T09:36:03.442Z,102373.88
2023-04-04T09:38:31.372Z,102364.28
2023-04-04T09:40:58.139Z,102362.53
2023-04-04T09:43:24.949Z,102370.56
2023-04-04T09:45:52.159Z,102367.03
2023-04-04T09:48:32.150Z,102378.50
2023-04-04T09:50:59.315Z,102370.81
2023-04-04T09:53:26.220Z,102365.50
2023-04-04T09:55:54.926Z,102371.44
2023-04-04T09:58:28.885Z,102365.22
2023-04-04T10:01:03.418Z,102365.47
2023-04-04T10:03:30.882Z,102360.69
2023-04-04T10:06:04.240Z,102363.38
2023-04-04T10:08:32.976Z,102356.63
2023-04-04T10:11:09.481Z,102354.69
2023-04-04T10:13:42.147Z,102345.34
2023-04-04T10:16:09.145Z,102344.59
2023-04-04T10:18:36.887Z,102332.88
2023-04-04T10:21:15.321Z,102348.91
2023-04-04T10:23:45.573Z,102340.72
2023-04-04T10:26:13.350Z,102335.66
2023-04-04T10:28:42.420Z,102332.88
2023-04-04T10:31:24.152Z,102330.31
2023-04-04T10:34:12.876Z,102333.84
2023-04-04T10:36:49.973Z,102324.03
2023-04-04T10:39:36.528Z,102326.34
2023-04-04T10:42:05.689Z,102321.22
2023-04-04T10:44:33.976Z,102315.72
2023-04-04T10:47:15.008Z,102312.72
2023-04-04T10:49:44.829Z,102308.22
2023-04-04T10:52:13.683Z,102303.31
2023-04-04T10:54:44.788Z,102293.50
2023-04-04T10:57:14.027Z,102302.63
2023-04-04T11:00:12.978Z,102299.25
2023-04-04T11:02:59.560Z,102303.06
2023-04-04T11:05:27.261Z,102292.25
2023-04-04T11:08:07.606Z,102295.41
2023-04-04T11:10:41.560Z,102289.44
2023-04-04T11:13:17.184Z,102281.94
2023-04-04T11:15:52.583Z,102281.13
2023-04-04T11:18:33.230Z,102278.59
2023-04-04T11:21:05.110Z,102274.38
2023-04-04T11:23:51.965Z,102263.69
2023-04-04T11:26:39.593Z,102257.94
2023-04-04T11:29:14.171Z,102258.38
2023-04-04T11:31:43.857Z,102255.09
2023-04-04T11:34:15.012Z,102246.47
2023-04-04T11:36:42.996Z,102251.88
2023-04-04T11:39:13.379Z,102247.06
2023-04-04T11:41:52.183Z,102250.06
2023-04-04T11:44:19.913Z,102251.97
2023-04-04T11:46:48.546Z,102251.25
2023-04-04T11:49:17.290Z,102248.00
2023-04-04T11:51:43.760Z,102241.28
2023-04-04T11:54:17.438Z,102238.03
2023-04-04T11:56:45.166Z,102246.59
2023-04-04T11:59:12.182Z,102232.31
2023-04-04T12:01:39.626Z,102236.25
2023-04-04T12:04:06.266Z,102227.13
2023-04-04T12:06:32.780Z,102228.63
2023-04-04T12:09:00.162Z,102219.00
2023-04-04T12:11:28.749Z,102213.16
2023-04-04T12:13:55.535Z,102211.28
2023-04-04T12:16:22.094Z,102202.91
2023-04-04T12:18:49.564Z,102199.53
2023-04-04T12:21:16.296Z,102199.28
2023-04-04T12:23:42.645Z,102200.28
2023-04-04T12:26:09.485Z,102193.88
2023-04-04T12:28:38.037Z,102192.59
2023-04-04T12:31:06.703Z,102188.34
2023-04-04T12:33:33.888Z,102191.59
2023-04-04T12:36:03.350Z,102191.78
2023-04-04T12:38:31.293Z,102195.13
2023-04-04T12:40:58.243Z,102187.59
2023-04-04T12:43:29.324Z,102191.97
2023-04-04T12:45:57.989Z,102181.78
2023-04-04T12:48:28.825Z,102179.97
2023-04-04T12:50:59.849Z,102177.38
2023-04-04T12:53:29.476Z,102169.72
2023-04-04T12:56:02.286Z,102157.31
2023-04-04T12:58:29.290Z,102143.78
2023-04-04T13:01:00.650Z,102147.84
2023-04-04T13:03:28.741Z,102149.50
2023-04-04T13:05:55.202Z,102139.75
2023-04-04T13:08:22.016Z,102145.50
2023-04-04T13:10:59.823Z,102132.63
2023-04-04T13:13:36.832Z,102125.00
2023-04-04T13:16:06.238Z,102130.72
2023-04-04T13:18:37.330Z,102128.47
2023-04-04T13:21:07.082Z,102114.31
2023-04-04T13:23:35.896Z,102111.56
2023-04-04T13:26:04.453Z,102108.16
2023-04-04T13:28:31.265Z,102110.50
2023-04-04T13:30:58.044Z,102105.47
2023-04-04T13:33:24.465Z,102104.44
2023-04-04T13:35:51.504Z,102102.75
2023-04-04T13:38:17.946Z,102096.41
2023-04-04T13:40:44.668Z,102091.88
2023-04-04T13:43:12.699Z,102093.78
2023-04-04T13:45:39.390Z,102098.41
2023-04-04T13:48:05.980Z,102090.34
2023-04-04T13:50:33.088Z,102087.28
2023-04-04T13:52:59.602Z,102077.56
2023-04-04T13:55:26.578Z,102080.53
2023-04-04T13:57:52.951Z,102073.88
2023-04-04T14:00:19.507Z,102070.28
2023-04-04T14:02:46.571Z,102067.97
2023-04-04T14:05:13.084Z,102058.78
2023-04-04T14:07:39.491Z,102050.81
2023-04-04T14:10:06.955Z,102051.69
2023-04-04T14:12:34.103Z,102054.94
2023-04-04T14:15:00.450Z,102045.28
2023-04-04T14:17:27.142Z,102052.00
2023-04-04T14:19:53.586Z,102049.78
2023-04-04T14:22:19.932Z,102041.44
2023-04-04T14:24:46.259Z,102040.91
2023-04-04T14:27:12.762Z,102044.09
2023-04-04T14:29:39.274Z,102026.59
2023-04-04T14:32:05.873Z,102025.47
2023-04-04T14:34:32.258Z,102016.06
2023-04-04T14:36:59.767Z,102015.50
2023-04-04T14:39:26.564Z,102007.63
2023-04-04T14:41:53.019Z,102007.88
2023-04-04T14:44:21.199Z,102001.69
2023-04-04T14:46:47.639Z,102010.84
2023-04-04T14:49:14.158Z,102006.28
2023-04-04T14:51:40.906Z,102009.59
2023-04-04T14:54:07.266Z,101996.66
2023-04-04T14:56:33.742Z,101995.03
2023-04-04T14:59:01.805Z,102003.75
2023-04-04T15:01:29.082Z,101999.25
2023-04-04T15:03:56.307Z,101996.75
2023-04-04T15:06:22.916Z,101998.72
2023-04-04T15:08:49.904Z,101994.28
2023-04-04T15:11:16.629Z,101992.94
2023-04-04T15:13:44.036Z,101993.22
2023-04-04T15:16:10.669Z,101990.53
2023-04-04T15:18:38.020Z,101995.97
2023-04-04T15:21:05.010Z,101986.38
2023-04-04T15:23:31.338Z,101981.56
2023-04-04T15:25:57.778Z,101980.22
2023-04-04T15:28:24.125Z,101982.69
2023-04-04T15:30:50.738Z,101970.72
2023-04-04T15:33:17.244Z,101974.38
2023-04-04T15:35:43.651Z,101969.94
2023-04-04T15:38:10.135Z,101965.19
2023-04-04T15:40:36.520Z,101959.81
2023-04-04T15:43:02.929Z,101963.66
2023-04-04T15:45:29.411Z,101969.50
2023-04-04T15:47:55.897Z,101966.50
2023-04-04T15:50:22.403Z,101974.38
2023-04-04T15:52:48.733Z,101968.44
2023-04-04T15:55:17.014Z,101967.53
2023-04-04T15:57:44.756Z,101965.53
2023-04-04T16:00:13.221Z,101962.72
2023-04-04T16:02:39.826Z,101967.66
2023-04-04T16:05:06.962Z,101961.75
2023-04-04T16:07:33.331Z,101963.25
2023-04-04T16:09:59.649Z,101958.34
2023-04-04T16:12:26.388Z,101957.38
2023-04-04T16:14:52.729Z,101963.06
2023-04-04T16:17:19.093Z,101956.22
2023-04-04T16:19:46.260Z,101963.41
2023-04-04T16:22:15.141Z,101958.97
2023-04-04T16:24:41.595Z,101955.00
2023-04-04T16:27:07.923Z,101950.59
2023-04-04T16:29:34.343Z,101958.31
2023-04-04T16:32:00.723Z,101956.34
2023-04-04T16:34:27.108Z,101954.88
2023-04-04T16:36:53.433Z,101949.44
2023-04-04T16:39:20.158Z,101950.16
2023-04-04T16:41:46.535Z,101952.53
2023-04-04T16:44:15.631Z,101953.03
2023-04-04T16:46:42.165Z,101956.22
2023-04-04T16:49:09.363Z,101950.44
2023-04-04T16:51:35.791Z,101945.31
2023-04-04T16:54:02.168Z,101943.47
2023-04-04T16:56:28.495Z,101940.09
2023-04-04T16:58:54.928Z,101947.47
2023-04-04T17:01:23.020Z,101943.03
2023-04-04T17:03:49.762Z,101943.94
2023-04-04T17:06:16.199Z,101937.91
2023-04-04T17:08:44.924Z,101938.53
2023-04-04T17:11:12.970Z,101933.09
2023-04-04T17:13:39.302Z,101931.41
2023-04-04T17:16:05.820Z,101942.72
2023-04-04T17:18:32.244Z,101941.91
2023-04-04T17:20:58.641Z,101935.44
2023-04-04T17:23:25.013Z,101930.25
2023-04-04T17:25:51.440Z,101935.94
2023-04-04T17:28:19.260Z,101933.00
2023-04-04T17:30:46.071Z,101943.44
2023-04-04T17:33:14.451Z,101937.00
2023-04-04T17:35:40.916Z,101933.69
2023-04-04T17:38:07.330Z,101942.44
2023-04-04T17:40:36.224Z,101940.38
2023-04-04T17:43:02.560Z,101933.28
2023-04-04T17:45:29.434Z,101933.47
2023-04-04T17:47:55.765Z,101942.47
2023-04-04T17:50:22.546Z,101939.75
2023-04-04T17:52:48.880Z,101941.00
2023-04-04T17:55:16.370Z,101938.31
2023-04-04T17:57:44.872Z,101934.13
2023-04-04T18:00:12.759Z,101937.06
2023-04-04T18:02:39.187Z,101940.81
2023-04-04T18:05:06.858Z,101933.72
2023-04-04T18:07:33.361Z,101944.97
2023-04-04T18:09:59.722Z,101942.06
2023-04-04T18:12:30.130Z,101941.63
2023-04-04T18:14:56.595Z,101937.00
2023-04-04T18:17:23.715Z,101942.22
2023-04-04T18:19:50.074Z,101935.75
2023-04-04T18:22:16.520Z,101934.50
2023-04-04T18:24:42.876Z,101936.56
2023-04-04T18:27:10.223Z,101941.78
2023-04-04T18:29:36.553Z,101949.28
2023-04-04T18:32:03.723Z,101945.47
2023-04-04T18:34:30.489Z,101951.28
2023-04-04T18:36:56.788Z,101949.66
2023-04-04T18:39:23.444Z,101951.50
2023-04-04T18:41:50.080Z,101951.50
2023-04-04T18:44:16.440Z,101944.81
2023-04-04T18:46:42.927Z,101942.13
2023-04-04T18:49:09.412Z,101942.66
2023-04-04T18:51:35.767Z,101954.75
2023-04-04T18:54:04.216Z,101954.22
2023-04-04T18:56:30.574Z,101957.31
2023-04-04T18:58:56.962Z,101961.16
2023-04-04T19:01:24.370Z,101958.09
2023-04-04T19:03:55.280Z,101966.78
2023-04-04T19:06:26.644Z,101962.41
2023-04-04T19:08:54.385Z,101964.88
2023-04-04T19:11:20.790Z,101968.63
2023-04-04T19:13:47.133Z,101965.88
2023-04-04T19:16:13.484Z,101972.34
2023-04-04T19:18:39.847Z,101964.31
2023-04-04T19:21:07.572Z,101969.28
2023-04-04T19:23:34.765Z,101972.75
2023-04-04T19:26:04.209Z,101975.88
2023-04-04T19:28:30.967Z,101974.19
2023-04-04T19:30:57.512Z,101981.19
2023-04-04T19:33:25.963Z,101979.13
2023-04-04T19:35:59.089Z,101972.28
2023-04-04T19:38:32.809Z,101978.09
2023-04-04T19:41:01.195Z,101978.28
2023-04-04T19:43:29.057Z,101987.03
2023-04-04T19:45:57.681Z,101980.75
2023-04-04T19:48:49.890Z,101969.50
2023-04-04T19:51:22.255Z,101977.00
2023-04-04T19:53:59.668Z,101981.88
2023-04-04T19:56:27.865Z,101977.91
2023-04-04T19:58:59.666Z,101973.78
2023-04-04T20:01:28.088Z,101974.22
2023-04-04T20:03:56.182Z,101976.72
2023-04-04T20:06:27.868Z,101975.31
2023-04-04T20:08:56.428Z,101974.03
2023-04-04T20:11:30.176Z,101972.75
2023-04-04T20:13:57.964Z,101969.50
2023-04-04T20:16:24.956Z,101985.84
2023-04-04T20:18:51.760Z,101982.63
2023-04-04T20:21:27.027Z,101983.28
2023-04-04T20:23:55.692Z,101979.84
2023-04-04T20:26:40.857Z,101987.50
2023-04-04T20:29:09.542Z,101988.94
2023-04-04T20:31:52.579Z,101987.28
2023-04-04T20:34:45.270Z,101990.22
2023-04-04T20:37:22.469Z,101990.94
2023-04-04T20:39:53.642Z,101988.59
2023-04-04T20:42:20.048Z,101985.72
2023-04-04T20:44:46.933Z,101990.84
2023-04-04T20:47:41.617Z,101991.50
2023-04-04T20:50:40.112Z,101987.50
2023-04-04T20:53:07.296Z,101990.22
2023-04-04T20:55:35.384Z,101982.75
2023-04-04T20:58:08.733Z,101983.66
2023-04-04T21:00:42.160Z,101986.16
2023-04-04T21:03:11.687Z,101983.66
2023-04-04T21:05:39.828Z,101994.47
2023-04-04T21:08:24.602Z,101985.25
2023-04-04T21:10:55.872Z,101988.78
2023-04-04T21:13:38.798Z,101985.25
2023-04-04T21:16:16.909Z,101981.09
2023-04-04T21:18:43.639Z,101978.75
2023-04-04T21:21:12.022Z,101982.31
2023-04-04T21:23:52.984Z,101970.66
2023-04-04T21:26:32.056Z,101964.38
2023-04-04T21:29:01.084Z,101965.53
2023-04-04T21:31:35.250Z,101970.00
2023-04-04T21:34:08.460Z,101967.06
2023-04-04T21:36:34.961Z,101961.28
2023-04-04T21:39:05.795Z,101959.16
2023-04-04T21:41:34.216Z,101963.91
2023-04-04T21:44:02.768Z,101959.09
2023-04-04T21:46:32.336Z,101951.06
2023-04-04T21:48:58.861Z,101947.38
2023-04-04T21:51:26.124Z,101944.31
2023-04-04T21:53:52.798Z,101941.22
2023-04-04T21:56:19.694Z,101944.88
2023-04-04T21:58:46.136Z,101945.06
2023-04-04T22:01:12.563Z,101940.53
2023-04-04T22:03:40.540Z,101932.41
2023-04-04T22:06:07.496Z,101936.44
2023-04-04T22:08:33.897Z,101936.44
2023-04-04T22:11:02.269Z,101940.03
2023-04-04T22:13:35.406Z,101936.41
2023-04-04T22:16:04.455Z,101941.44
2023-04-04T22:18:30.981Z,101949.00
2023-04-04T22:20:58.540Z,101951.47
2023-04-04T22:23:25.483Z,101949.91
2023-04-04T22:25:52.024Z,101946.38
2023-04-04T22:28:18.412Z,101940.16
2023-04-04T22:30:44.789Z,101935.84
2023-04-04T22:33:11.866Z,101927.94
2023-04-04T22:35:39.517Z,101927.03
2023-04-04T22:38:06.348Z,101932.22
2023-04-04T22:40:33.984Z,101928.31
2023-04-04T22:43:01.462Z,101919.97
2023-04-04T22:45:29.556Z,101925.47
2023-04-04T22:47:57.835Z,101932.91
2023-04-04T22:50:24.852Z,101936.34
2023-04-04T22:52:54.756Z,101928.84
2023-04-04T22:55:23.467Z,101929.03
2023-04-04T22:57:50.334Z,101923.81
2023-04-04T23:00:17.357Z,101919.16
2023-04-04T23:02:46.088Z,101917.41
2023-04-04T23:05:14.357Z,101918.44
2023-04-04T23:07:41.386Z,101923.53
2023-04-04T23:10:11.511Z,101915.91
2023-04-04T23:12:38.511Z,101921.19
2023-04-04T23:15:06.950Z,101917.38
2023-04-04T23:17:34.395Z,101914.97
2023-04-04T23:20:01.810Z,101918.25
2023-04-04T23:22:28.884Z,101909.88
2023-04-04T23:24:55.599Z,101915.16
2023-04-04T23:27:21.981Z,101911.25
2023-04-04T23:29:50.687Z,101906.78
2023-04-04T23:32:17.014Z,101901.09
2023-04-04T23:34:43.326Z,101903.25
2023-04-04T23:37:09.762Z,101897.19
2023-04-04T23:39:36.599Z,101904.81
2023-04-04T23:42:03.065Z,101898.97
2023-04-04T23:44:29.437Z,101901.94
2023-04-04T23:46:55.890Z,101901.94
2023-04-04T23:49:22.422Z,101901.47
2023-04-04T23:51:48.954Z,101896.31
2023-04-04T23:54:15.448Z,101896.72
2023-04-04T23:56:41.791Z,101896.31
2023-04-04T23:59:08.265Z,101885.94
